Time;durP1;ratioP1;P1;durP2;ratioP2;P2;SDS_P1;SDS_P2;PMS_P1;PMS_P2;Temp;Humidity;BMP_temperature;BMP_pressure;BME280_temperature;BME280_humidity;BME280_pressure;Samples;Min_cycle;Max_cycle;Signal;HPM_P1;HPM_P2
2023/09/09 00:01:31;;;;;;;23.42;10.60;;;24.30;61.00;;;;;;5019726;28;20034;-58
2023/09/09 00:03:56;;;;;;;14.38;9.88;;;24.30;60.70;;;;;;5025928;28;20101;-59
2023/09/09 00:06:22;;;;;;;16.25;10.10;;;24.30;61.20;;;;;;5024939;28;20151;-58
2023/09/09 00:08:48;;;;;;;21.13;12.15;;;24.30;60.80;;;;;;5022589;28;20033;-59
2023/09/09 00:11:14;;;;;;;18.55;10.25;;;24.30;60.40;;;;;;5023102;28;20025;-58
2023/09/09 00:13:40;;;;;;;17.40;10.55;;;24.30;61.00;;;;;;5026191;28;20484;-59
2023/09/09 00:16:06;;;;;;;20.20;10.82;;;24.30;61.10;;;;;;5022078;28;20053;-59
2023/09/09 00:18:33;;;;;;;21.02;11.43;;;24.30;61.00;;;;;;5023020;23;20058;31
2023/09/09 00:21:00;;;;;;;21.30;10.65;;;24.30;61.00;;;;;;5087594;28;20036;-54
2023/09/09 00:23:26;;;;;;;15.63;10.48;;;24.30;60.90;;;;;;5096893;28;20119;-54
2023/09/09 00:25:52;;;;;;;15.55;10.05;;;24.30;60.50;;;;;;5091208;28;20028;-53
2023/09/09 00:28:20;;;;;;;13.88;9.73;;;24.20;60.90;;;;;;5091786;28;20048;-56
2023/09/09 00:30:46;;;;;;;16.02;10.77;;;24.20;60.60;;;;;;5090653;28;20024;-53
2023/09/09 00:33:12;;;;;;;18.58;10.60;;;24.20;60.80;;;;;;5090819;28;20024;-54
2023/09/09 00:35:38;;;;;;;18.48;11.05;;;24.20;60.60;;;;;;5091226;28;20382;-53
2023/09/09 00:38:11;;;;;;;17.02;10.30;;;24.20;60.60;;;;;;5088391;28;20036;-53
2023/09/09 00:40:37;;;;;;;19.85;9.90;;;24.20;60.60;;;;;;5089523;28;20497;-57
2023/09/09 00:43:03;;;;;;;12.57;9.43;;;24.20;60.60;;;;;;5088346;28;20095;-52
2023/09/09 00:45:29;;;;;;;14.20;10.13;;;24.20;60.60;;;;;;5085786;28;20111;-56
2023/09/09 00:47:56;;;;;;;14.50;9.77;;;24.20;60.60;;;;;;5087490;28;20089;-54
2023/09/09 00:50:22;;;;;;;15.90;9.98;;;24.20;60.50;;;;;;5089697;28;20026;-55
2023/09/09 00:52:48;;;;;;;16.45;9.63;;;24.20;60.80;;;;;;5089158;28;20031;-57
2023/09/09 00:55:14;;;;;;;15.30;9.52;;;24.20;60.90;;;;;;5090622;28;20028;-55
2023/09/09 00:57:40;;;;;;;16.65;10.13;;;24.20;60.80;;;;;;5089559;28;20391;-53
2023/09/09 01:00:10;;;;;;;14.40;9.68;;;24.20;60.80;;;;;;5088254;28;20020;-54
2023/09/09 01:02:36;;;;;;;;;;;24.20;60.80;;;;;;5082827;28;20107;-53
2023/09/09 01:05:04;;;;;;;14.60;9.73;;;24.20;60.70;;;;;;5089508;28;19908;-52
2023/09/09 01:07:44;;;;;;;14.82;9.60;;;24.20;60.90;;;;;;5090733;28;20032;-56
2023/09/09 01:10:11;;;;;;;15.05;10.00;;;24.20;60.80;;;;;;5064246;28;20100;-51
2023/09/09 01:12:37;;;;;;;16.30;9.57;;;24.20;60.60;;;;;;5088084;28;20031;-53
2023/09/09 01:15:05;;;;;;;13.73;9.85;;;24.20;60.80;;;;;;5090586;28;20028;-52
2023/09/09 01:17:33;;;;;;;13.02;8.98;;;24.20;60.80;;;;;;5090341;28;20112;-57
2023/09/09 01:20:00;;;;;;;17.17;9.45;;;24.20;60.80;;;;;;5102642;28;20028;-53
2023/09/09 01:22:28;;;;;;;14.07;9.30;;;24.20;60.70;;;;;;5111430;28;20016;-53
2023/09/09 01:24:55;;;;;;;15.85;9.30;;;24.20;60.80;;;;;;5087746;28;20506;-54
2023/09/09 01:27:21;;;;;;;18.00;9.98;;;24.20;60.70;;;;;;5110708;28;20051;-57
2023/09/09 01:29:47;;;;;;;16.05;9.63;;;24.20;60.90;;;;;;5111150;28;20471;-60
2023/09/09 01:32:13;;;;;;;17.35;9.80;;;24.20;60.90;;;;;;5092605;28;20028;-56
2023/09/09 01:34:38;;;;;;;19.25;10.70;;;24.20;60.20;;;;;;5091357;28;20030;-57
2023/09/09 01:37:04;;;;;;;20.00;10.90;;;24.10;60.10;;;;;;5111211;28;20444;-59
2023/09/09 01:39:30;;;;;;;18.88;9.90;;;24.10;60.50;;;;;;5110915;28;20540;-58
2023/09/09 01:41:56;;;;;;;17.02;10.20;;;24.00;60.60;;;;;;5111183;28;20024;-58
2023/09/09 01:44:22;;;;;;;16.13;9.45;;;24.00;60.70;;;;;;5111278;28;20475;-59
2023/09/09 01:46:47;;;;;;;17.48;10.10;;;23.90;60.90;;;;;;5092609;28;20024;-55
2023/09/09 01:49:13;;;;;;;15.07;10.05;;;23.90;60.80;;;;;;5075920;28;20055;-57
2023/09/09 01:51:39;;;;;;;15.73;9.27;;;23.90;60.90;;;;;;5092988;28;20441;-58
2023/09/09 01:54:05;;;;;;;15.75;10.20;;;23.90;60.80;;;;;;5101956;28;20074;-58
2023/09/09 01:56:31;;;;;;;13.35;9.80;;;23.90;60.90;;;;;;5088910;28;20035;-56
2023/09/09 01:58:56;;;;;;;17.77;10.15;;;23.80;60.70;;;;;;5092527;28;20106;-59
2023/09/09 02:01:22;;;;;;;15.52;9.52;;;23.70;61.30;;;;;;5092494;28;20433;-57
2023/09/09 02:03:48;;;;;;;15.70;9.90;;;23.70;60.80;;;;;;5084225;28;20028;-57
2023/09/09 02:06:14;;;;;;;17.23;10.02;;;23.70;60.80;;;;;;5113052;28;20047;-58
2023/09/09 02:08:41;;;;;;;14.75;10.15;;;23.80;61.00;;;;;;5095948;28;20032;-58
2023/09/09 02:11:07;;;;;;;13.90;10.30;;;23.70;61.20;;;;;;5077160;28;20028;-57
2023/09/09 02:13:33;;;;;;;13.15;9.85;;;23.70;61.30;;;;;;5113767;28;20031;-55
2023/09/09 02:16:06;;;;;;;14.15;9.77;;;23.70;61.10;;;;;;5095766;28;20031;-57
2023/09/09 02:18:32;;;;;;;14.07;10.65;;;23.70;61.30;;;;;;5111767;28;20032;-59
2023/09/09 02:20:59;;;;;;;14.90;9.85;;;23.70;61.00;;;;;;5079326;28;20118;-58
2023/09/09 02:23:25;;;;;;;13.82;9.60;;;23.70;61.00;;;;;;5113674;28;20020;-59
2023/09/09 02:25:50;;;;;;;19.55;10.73;;;23.60;60.80;;;;;;5091952;28;20038;-57
2023/09/09 02:28:17;;;;;;;15.10;9.80;;;23.60;60.90;;;;;;5114122;28;20060;-57
2023/09/09 02:30:44;;;;;;;16.58;9.93;;;23.60;61.00;;;;;;5113930;28;20579;-59
2023/09/09 02:33:09;;;;;;;17.73;10.40;;;23.60;61.10;;;;;;5112998;28;20034;-52
2023/09/09 02:35:40;;;;;;;18.48;9.88;;;23.60;61.10;;;;;;5113728;28;20023;-56
2023/09/09 02:38:06;;;;;;;17.63;10.15;;;23.60;61.40;;;;;;5093478;28;20046;-58
2023/09/09 02:40:32;;;;;;;14.68;9.95;;;23.60;61.20;;;;;;5091481;28;20024;-58
2023/09/09 02:42:57;;;;;;;18.33;10.30;;;23.60;61.30;;;;;;5113443;28;20433;-55
2023/09/09 02:45:23;;;;;;;14.43;9.50;;;23.60;61.40;;;;;;5108959;28;20038;-57
2023/09/09 02:47:49;;;;;;;15.07;10.05;;;23.60;61.30;;;;;;5109322;28;20012;-54
2023/09/09 02:50:15;;;;;;;14.82;9.80;;;23.60;61.40;;;;;;5085821;28;20023;-54
2023/09/09 02:52:41;;;;;;;14.50;9.63;;;23.60;61.20;;;;;;5095024;28;20047;-56
2023/09/09 02:55:07;;;;;;;16.00;10.43;;;23.60;61.40;;;;;;5094846;28;20054;-56
2023/09/09 02:57:33;;;;;;;19.20;10.32;;;23.60;61.40;;;;;;5088085;28;20027;-54
2023/09/09 02:59:59;;;;;;;15.13;9.82;;;23.60;61.30;;;;;;5092407;28;20042;-57
2023/09/09 03:02:24;;;;;;;14.00;10.00;;;23.60;61.40;;;;;;5113273;28;20019;-60
2023/09/09 03:04:50;;;;;;;16.00;10.30;;;23.50;61.50;;;;;;5112655;28;20421;-55
2023/09/09 03:07:16;;;;;;;16.42;10.13;;;23.50;61.30;;;;;;5094740;28;20516;-59
2023/09/09 03:09:45;;;;;;;15.52;9.98;;;23.50;61.30;;;;;;5094985;28;20510;-58
2023/09/09 03:12:11;;;;;;;19.13;9.45;;;23.50;61.30;;;;;;5094506;28;20055;-57
2023/09/09 03:14:37;;;;;;;14.90;10.07;;;23.50;61.30;;;;;;5112782;28;20051;-57
2023/09/09 03:17:03;;;;;;;14.35;10.05;;;23.50;61.30;;;;;;5093351;28;20056;-59
2023/09/09 03:19:29;;;;;;;14.52;9.70;;;23.50;61.30;;;;;;5094581;28;20083;-55
2023/09/09 03:21:57;;;;;;;13.93;9.68;;;23.50;61.30;;;;;;5094556;28;20031;-57
2023/09/09 03:24:23;;;;;;;16.58;10.35;;;23.50;61.30;;;;;;5111914;28;20031;-57
2023/09/09 03:26:49;;;;;;;15.73;10.00;;;23.50;61.30;;;;;;5077278;28;20020;-56
2023/09/09 03:29:15;;;;;;;19.25;9.98;;;23.50;61.30;;;;;;5094459;28;20053;-59
2023/09/09 03:31:40;;;;;;;14.65;9.65;;;23.40;61.40;;;;;;5113608;27;20088;-57
2023/09/09 03:34:06;;;;;;;17.70;10.40;;;23.40;61.40;;;;;;5112414;28;20028;-57
2023/09/09 03:36:32;;;;;;;15.18;9.77;;;23.50;61.30;;;;;;5111695;28;20047;-58
2023/09/09 03:39:03;;;;;;;14.82;10.05;;;23.40;61.40;;;;;;5094271;28;20506;-59
2023/09/09 03:41:29;;;;;;;15.43;9.70;;;23.40;61.20;;;;;;5090994;28;20099;-59
2023/09/09 03:43:55;;;;;;;16.20;9.25;;;23.40;61.40;;;;;;5112135;28;20547;-57
2023/09/09 03:46:21;;;;;;;16.00;10.40;;;23.40;61.30;;;;;;5111933;28;20023;-59
2023/09/09 03:48:47;;;;;;;15.20;9.52;;;23.40;61.90;;;;;;5110916;28;20026;-57
2023/09/09 03:51:13;;;;;;;15.48;10.85;;;23.40;61.40;;;;;;5086699;28;20032;-58
2023/09/09 03:53:39;;;;;;;16.75;10.57;;;23.40;61.40;;;;;;5077101;28;20465;-54
2023/09/09 03:56:05;;;;;;;17.85;9.93;;;23.30;61.40;;;;;;5092395;28;20028;-57
2023/09/09 03:58:31;;;;;;;14.30;10.23;;;23.30;61.60;;;;;;5085756;28;20084;-59
2023/09/09 04:01:08;;;;;;;15.90;9.48;;;23.30;61.60;;;;;;5094017;28;20023;-58
2023/09/09 04:03:36;;;;;;;14.90;10.32;;;23.30;61.70;;;;;;5099849;28;20023;-56
2023/09/09 04:06:07;;;;;;;14.15;10.00;;;23.20;61.70;;;;;;5077717;28;20031;-56
2023/09/09 04:08:34;;;;;;;15.38;10.32;;;23.20;61.60;;;;;;5086852;28;20019;-56
2023/09/09 04:11:01;;;;;;;16.17;10.35;;;23.20;61.70;;;;;;5093599;28;20028;-58
2023/09/09 04:13:27;;;;;;;14.45;10.50;;;23.20;61.70;;;;;;5092772;28;20479;-56
2023/09/09 04:15:54;;;;;;;15.38;10.25;;;23.20;61.70;;;;;;5093565;28;20118;-58
2023/09/09 04:18:20;;;;;;;31.38;10.13;;;23.20;61.80;;;;;;5103196;28;20019;-56
2023/09/09 04:20:46;;;;;;;14.70;10.27;;;23.20;61.70;;;;;;5089741;28;20020;-60
2023/09/09 04:23:12;;;;;;;15.95;10.45;;;23.20;61.70;;;;;;5111506;28;20027;-60
2023/09/09 04:25:38;;;;;;;16.13;11.02;;;23.20;61.80;;;;;;5093672;28;20022;-59
2023/09/09 04:28:05;;;;;;;17.52;12.10;;;23.20;61.90;;;;;;5089802;28;20102;-57
2023/09/09 04:30:31;;;;;;;19.60;13.10;;;23.20;61.90;;;;;;5093688;28;20058;-59
2023/09/09 04:32:57;;;;;;;24.23;14.07;;;23.20;61.80;;;;;;5093293;28;20059;-59
2023/09/09 04:35:22;;;;;;;24.98;15.45;;;23.10;61.70;;;;;;5093211;28;20019;-59
2023/09/09 04:37:50;;;;;;;22.88;15.43;;;23.10;61.80;;;;;;5111467;28;20028;-58
2023/09/09 04:40:16;;;;;;;21.27;14.55;;;23.20;61.70;;;;;;5089375;28;20028;-60
2023/09/09 04:42:42;;;;;;;19.63;12.75;;;23.10;61.90;;;;;;5093113;28;20506;-60
2023/09/09 04:45:09;;;;;;;19.10;11.50;;;23.20;61.90;;;;;;5093781;28;20068;-58
2023/09/09 04:47:35;;;;;;;15.88;10.85;;;23.10;61.80;;;;;;5111050;28;20542;-59
2023/09/09 04:50:01;;;;;;;18.52;10.88;;;23.10;62.00;;;;;;5092497;28;20103;-60
2023/09/09 04:52:28;;;;;;;17.83;10.35;;;23.00;61.70;;;;;;5069129;28;20039;-60
2023/09/09 04:54:53;;;;;;;14.48;10.07;;;23.00;61.80;;;;;;5093682;28;20028;-60
2023/09/09 04:57:19;;;;;;;16.15;10.80;;;23.10;61.90;;;;;;5111199;28;20023;-60
2023/09/09 04:59:45;;;;;;;19.73;12.57;;;23.10;61.90;;;;;;5092584;28;20106;-59
2023/09/09 05:02:12;;;;;;;19.00;13.45;;;23.00;61.90;;;;;;5092496;28;20482;-60
2023/09/09 05:04:39;;;;;;;19.05;13.57;;;23.00;62.00;;;;;;5105680;28;20024;-59
2023/09/09 05:07:05;;;;;;;20.67;12.43;;;23.00;62.00;;;;;;5111615;28;20065;-59
2023/09/09 05:09:31;;;;;;;19.80;13.30;;;23.00;62.10;;;;;;5111280;28;20015;-58
2023/09/09 05:11:57;;;;;;;19.05;13.73;;;23.00;62.20;;;;;;5093335;28;20031;-60
2023/09/09 05:14:23;;;;;;;19.60;12.35;;;22.90;62.20;;;;;;5097461;28;20023;-59
2023/09/09 05:16:49;;;;;;;20.65;12.18;;;22.90;62.30;;;;;;5093297;28;20019;-59
2023/09/09 05:19:15;;;;;;;21.50;11.80;;;22.90;62.40;;;;;;5110813;28;20076;-60
2023/09/09 05:21:41;;;;;;;18.90;12.20;;;22.80;62.40;;;;;;5091443;28;20390;-59
2023/09/09 05:24:07;;;;;;;19.60;14.23;;;22.90;62.50;;;;;;5092526;28;20023;-59
2023/09/09 05:26:33;;;;;;;20.38;14.13;;;22.90;62.50;;;;;;5092063;28;20024;-59
2023/09/09 05:29:01;;;;;;;21.45;14.05;;;22.90;62.50;;;;;;5092907;28;20054;-59
2023/09/09 05:31:27;;;;;;;20.38;14.07;;;22.90;62.60;;;;;;5110604;28;20050;-60
2023/09/09 05:33:53;;;;;;;29.75;15.95;;;22.90;62.50;;;;;;5085158;28;20016;-59
2023/09/09 05:36:19;;;;;;;20.05;13.30;;;22.90;62.50;;;;;;5111062;28;20068;-59
2023/09/09 05:38:45;;;;;;;19.90;11.85;;;23.00;62.70;;;;;;5094259;28;20020;-59
2023/09/09 05:41:10;;;;;;;19.77;11.77;;;22.90;62.60;;;;;;5111591;28;20050;-60
2023/09/09 05:43:36;;;;;;;17.38;11.48;;;22.90;62.60;;;;;;5096442;28;20419;-59
2023/09/09 05:46:03;;;;;;;15.20;11.15;;;23.00;62.60;;;;;;5114551;28;20038;-59
2023/09/09 05:48:30;;;;;;;13.35;10.32;;;23.00;62.60;;;;;;5096430;28;20573;-59
2023/09/09 05:50:56;;;;;;;17.77;10.68;;;23.00;62.60;;;;;;5114885;28;20483;-54
2023/09/09 05:53:22;;;;;;;17.20;11.15;;;22.90;62.60;;;;;;5095501;28;20027;-57
2023/09/09 05:55:49;;;;;;;18.90;10.43;;;22.90;63.20;;;;;;5095415;28;20034;-58
2023/09/09 05:58:15;;;;;;;15.57;10.30;;;23.00;62.70;;;;;;5095839;28;20039;-59
2023/09/09 06:00:41;;;;;;;14.60;10.73;;;22.90;62.70;;;;;;5089259;28;20020;-57
2023/09/09 06:03:07;;;;;;;17.08;10.05;;;23.00;62.80;;;;;;5091191;28;20028;-59
2023/09/09 06:05:34;;;;;;;14.82;10.45;;;23.00;62.90;;;;;;5097874;28;20152;-59
2023/09/09 06:07:59;;;;;;;20.88;11.07;;;23.00;62.80;;;;;;5099335;28;20032;-59
2023/09/09 06:10:25;;;;;;;16.67;10.48;;;23.00;62.80;;;;;;5096075;28;20030;-59
2023/09/09 06:12:51;;;;;;;17.48;11.27;;;23.00;62.90;;;;;;5113244;28;20027;-58
2023/09/09 06:15:17;;;;;;;14.60;10.10;;;23.00;62.90;;;;;;5096499;28;20038;-58
2023/09/09 06:17:43;;;;;;;14.52;10.75;;;22.90;62.90;;;;;;5113271;28;20188;-59
2023/09/09 06:20:10;;;;;;;19.45;10.18;;;22.90;63.00;;;;;;5105521;22;20052;-48
2023/09/09 06:22:37;;;;;;;18.92;10.90;;;23.00;63.00;;;;;;5072655;28;20412;-54
2023/09/09 06:25:04;;;;;;;20.40;11.25;;;23.00;63.00;;;;;;5047895;28;20029;-50
2023/09/09 06:27:30;;;;;;;21.80;11.73;;;23.00;63.00;;;;;;5055297;28;20039;-52
2023/09/09 06:29:56;;;;;;;20.17;12.32;;;23.00;63.00;;;;;;5072652;28;20028;-47
2023/09/09 06:32:22;;;;;;;17.20;11.48;;;23.00;62.90;;;;;;5071364;28;20078;-50
2023/09/09 06:34:48;;;;;;;19.70;11.15;;;23.10;63.00;;;;;;5057851;28;20033;-53
2023/09/09 06:37:14;;;;;;;14.75;10.77;;;23.10;63.00;;;;;;5071215;28;20488;-54
2023/09/09 06:39:40;;;;;;;17.13;11.32;;;23.10;62.90;;;;;;5070711;28;20025;-56
2023/09/09 06:42:06;;;;;;;17.52;12.35;;;23.10;63.10;;;;;;5066423;28;20028;-55
2023/09/09 06:44:33;;;;;;;21.60;13.35;;;23.10;63.00;;;;;;5084326;28;20024;-55
2023/09/09 06:46:58;;;;;;;17.73;11.63;;;23.00;63.00;;;;;;5072548;28;20020;-54
2023/09/09 06:49:24;;;;;;;21.65;12.40;;;23.00;63.00;;;;;;5064772;28;20047;-46
2023/09/09 06:51:50;;;;;;;17.35;12.27;;;23.00;62.90;;;;;;5072850;28;20082;-54
2023/09/09 06:54:16;;;;;;;20.92;12.65;;;23.10;63.00;;;;;;5072559;28;20032;-53
2023/09/09 06:56:41;;;;;;;18.42;12.02;;;23.00;63.00;;;;;;5071391;28;20515;-53
2023/09/09 06:59:07;;;;;;;18.35;11.90;;;23.10;63.00;;;;;;5068254;28;20028;-49
2023/09/09 07:01:33;;;;;;;16.48;11.32;;;23.10;63.00;;;;;;5072383;28;20380;-53
2023/09/09 07:03:59;;;;;;;16.05;10.75;;;23.10;63.00;;;;;;5071920;28;20024;-48
2023/09/09 07:06:25;;;;;;;19.83;11.45;;;23.10;63.00;;;;;;5062746;28;20074;-46
2023/09/09 07:08:51;;;;;;;15.60;10.80;;;23.20;62.90;;;;;;5069782;28;20025;-51
2023/09/09 07:11:17;;;;;;;14.65;9.95;;;23.20;63.00;;;;;;5072168;28;20487;-50
2023/09/09 07:13:43;;;;;;;15.57;9.95;;;23.20;62.80;;;;;;5067924;28;20016;-50
2023/09/09 07:16:09;;;;;;;17.20;10.95;;;23.20;62.80;;;;;;5072788;28;20025;-49
2023/09/09 07:18:35;;;;;;;16.02;10.65;;;23.30;62.70;;;;;;5070860;28;20024;-49
2023/09/09 07:21:00;;;;;;;20.45;10.88;;;23.30;62.70;;;;;;5071277;28;20060;-49
2023/09/09 07:23:26;;;;;;;16.08;10.07;;;23.30;62.70;;;;;;5068458;28;20095;-49
2023/09/09 07:25:52;;;;;;;14.45;10.27;;;23.30;62.60;;;;;;5072617;28;20067;-50
2023/09/09 07:28:18;;;;;;;18.95;10.00;;;23.30;62.50;;;;;;5071927;28;20143;-51
2023/09/09 07:30:44;;;;;;;15.05;9.65;;;23.30;62.20;;;;;;5072418;28;20036;-51
2023/09/09 07:33:10;;;;;;;17.15;9.95;;;23.30;62.30;;;;;;5063342;28;20025;-49
2023/09/09 07:35:36;;;;;;;15.23;9.98;;;23.30;62.40;;;;;;5067538;28;20047;-49
2023/09/09 07:38:04;;;;;;;15.48;9.30;;;23.40;62.50;;;;;;5067930;28;20032;-50
2023/09/09 07:40:30;;;;;;;13.75;8.88;;;23.40;62.90;;;;;;5070746;28;20040;-54
2023/09/09 07:42:56;;;;;;;15.93;8.88;;;23.40;62.50;;;;;;5071687;28;20021;-52
2023/09/09 07:45:22;;;;;;;13.38;8.63;;;23.40;62.40;;;;;;5072351;28;20024;-52
2023/09/09 07:47:48;;;;;;;16.15;9.05;;;23.50;62.40;;;;;;5069752;28;20021;-48
2023/09/09 07:50:14;;;;;;;15.32;8.90;;;23.50;62.40;;;;;;5071932;28;20107;-47
2023/09/09 07:52:40;;;;;;;15.80;8.27;;;23.60;62.30;;;;;;5069068;28;20052;-49
2023/09/09 07:55:06;;;;;;;14.63;8.45;;;23.60;62.40;;;;;;5067929;28;20078;-49
2023/09/09 07:57:32;;;;;;;19.05;8.85;;;23.60;62.60;;;;;;5066894;28;20028;-47
2023/09/09 07:59:58;;;;;;;13.32;8.98;;;23.70;62.30;;;;;;5067795;28;20384;-52
2023/09/09 08:02:24;;;;;;;13.43;8.65;;;23.70;63.00;;;;;;5064656;28;20506;-51
2023/09/09 08:04:50;;;;;;;16.65;9.55;;;23.70;62.20;;;;;;5061709;28;20017;-50
2023/09/09 08:07:15;;;;;;;15.05;9.07;;;23.80;62.80;;;;;;5070163;28;20116;-49
2023/09/09 08:09:41;;;;;;;15.13;8.57;;;23.80;62.10;;;;;;5065043;28;20025;-49
2023/09/09 08:12:07;;;;;;;19.65;9.25;;;23.80;61.80;;;;;;5071715;28;20391;-49
2023/09/09 08:14:33;;;;;;;15.73;9.02;;;23.80;61.50;;;;;;5069265;28;20020;-50
2023/09/09 08:16:59;;;;;;;15.43;8.90;;;23.80;61.30;;;;;;5071713;28;20058;-51
2023/09/09 08:19:24;;;;;;;18.52;9.18;;;23.80;61.70;;;;;;5069586;28;20032;-48
2023/09/09 08:21:51;;;;;;;14.73;8.90;;;23.90;61.70;;;;;;5067227;28;20032;-49
2023/09/09 08:24:17;;;;;;;12.52;7.93;;;24.00;61.40;;;;;;5070485;28;20170;-53
2023/09/09 08:26:43;;;;;;;15.77;8.55;;;24.00;61.10;;;;;;5062194;28;20095;-51
2023/09/09 08:29:08;;;;;;;19.80;9.25;;;24.00;61.00;;;;;;5071235;28;20210;-47
2023/09/09 08:31:35;;;;;;;15.00;8.82;;;24.10;60.40;;;;;;5070404;28;20023;-48
2023/09/09 08:34:01;;;;;;;19.35;8.77;;;24.10;59.60;;;;;;5071329;28;20496;-54
2023/09/09 08:36:27;;;;;;;18.17;8.88;;;24.20;59.30;;;;;;5070978;28;20031;-51
2023/09/09 08:38:56;;;;;;;19.63;9.23;;;24.20;59.50;;;;;;5067595;28;20029;-50
2023/09/09 08:41:37;;;;;;;15.48;9.70;;;24.30;59.50;;;;;;5071346;28;20074;-51
2023/09/09 08:44:42;;;;;;;20.92;9.77;;;24.40;58.70;;;;;;5070621;28;20116;-53
2023/09/09 08:47:08;;;;;;;40.53;11.77;;;24.50;59.80;;;;;;5071614;28;20093;-54
2023/09/09 08:49:35;;;;;;;51.60;12.07;;;24.50;69.60;;;;;;5070952;28;20545;-55
2023/09/09 08:52:03;;;;;;;18.67;9.75;;;24.60;70.30;;;;;;5071493;28;20024;-56
2023/09/09 08:54:29;;;;;;;36.25;10.52;;;24.50;64.30;;;;;;5071560;28;20476;-54
2023/09/09 08:56:57;;;;;;;21.77;9.55;;;24.60;66.70;;;;;;5071380;28;20488;-53
2023/09/09 08:59:23;;;;;;;18.38;8.40;;;24.50;62.90;;;;;;5060596;28;20025;-52
2023/09/09 09:01:51;;;;;;;16.92;8.65;;;24.60;61.10;;;;;;5058251;28;20100;-54
2023/09/09 09:04:18;;;;;;;14.73;7.65;;;24.60;59.50;;;;;;5068806;28;20127;-56
2023/09/09 09:06:47;;;;;;;16.25;8.10;;;24.60;58.40;;;;;;5071141;28;20025;-52
2023/09/09 09:09:19;;;;;;;;;;;24.70;58.60;;;;;;5067530;28;20025;-56
2023/09/09 09:11:45;;;;;;;11.30;7.88;;;24.70;59.60;;;;;;5070586;28;20383;-51
2023/09/09 09:14:11;;;;;;;20.58;7.75;;;24.70;58.90;;;;;;5075253;28;20474;-47
2023/09/09 09:16:40;;;;;;;17.27;8.27;;;24.70;58.40;;;;;;5075316;28;20107;-54
2023/09/09 09:19:27;;;;;;;13.93;7.63;;;24.70;57.90;;;;;;5074994;28;20025;-53
2023/09/09 09:21:54;;;;;;;10.98;7.55;;;24.80;58.00;;;;;;5073648;28;20044;-55
2023/09/09 09:24:27;;;;;;;15.45;7.88;;;24.80;58.50;;;;;;5075325;28;20251;-49
2023/09/09 09:26:55;;;;;;;13.30;7.43;;;24.80;58.70;;;;;;5075124;28;20063;-49
2023/09/09 09:29:21;;;;;;;15.23;8.32;;;24.70;58.50;;;;;;5074686;28;20043;-51
2023/09/09 09:31:51;;;;;;;17.98;8.65;;;24.80;60.20;;;;;;5074959;28;20032;-46
2023/09/09 09:34:19;;;;;;;20.73;9.13;;;24.80;61.10;;;;;;5074943;28;20074;-50
2023/09/09 09:36:46;;;;;;;29.35;10.48;;;24.90;60.00;;;;;;5074919;28;20036;-47
2023/09/09 09:39:12;;;;;;;34.20;9.80;;;24.90;66.90;;;;;;5067731;28;20033;-54
2023/09/09 09:41:39;;;;;;;27.02;9.68;;;24.90;68.30;;;;;;5073858;28;20437;-51
2023/09/09 09:44:17;;;;;;;20.42;8.68;;;25.00;63.80;;;;;;5067997;28;20025;-51
2023/09/09 09:46:56;;;;;;;28.65;10.23;;;25.00;60.40;;;;;;5065387;28;20079;-54
2023/09/09 09:49:38;;;;;;;21.52;9.80;;;25.00;60.90;;;;;;5073735;28;20081;-50
2023/09/09 09:52:06;;;;;;;19.55;9.70;;;25.00;56.90;;;;;;5065534;28;20032;-47
2023/09/09 09:54:33;;;;;;;16.17;10.18;;;25.10;55.70;;;;;;5067700;28;20031;-51
2023/09/09 09:57:03;;;;;;;24.40;13.48;;;25.10;55.70;;;;;;5073204;28;20453;-48
2023/09/09 09:59:34;;;;;;;17.33;10.98;;;25.30;55.60;;;;;;5070994;28;20028;-46
2023/09/09 10:02:00;;;;;;;16.13;9.50;;;25.30;54.30;;;;;;5062024;28;20025;-51
2023/09/09 10:04:30;;;;;;;15.05;8.30;;;25.30;56.40;;;;;;5074520;28;20066;-49
2023/09/09 10:06:59;;;;;;;16.55;8.65;;;25.40;54.00;;;;;;5071069;28;20021;-52
2023/09/09 10:09:30;;;;;;;19.60;8.15;;;25.40;54.60;;;;;;5066638;28;20112;-50
2023/09/09 10:12:10;;;;;;;14.10;8.13;;;25.50;56.10;;;;;;5073011;28;20038;-46
2023/09/09 10:14:37;;;;;;;14.93;7.75;;;25.50;54.60;;;;;;5067899;28;20479;-46
2023/09/09 10:17:07;;;;;;;14.05;7.53;;;25.60;54.00;;;;;;5073974;28;20020;-50
2023/09/09 10:19:36;;;;;;;10.02;7.10;;;25.70;52.00;;;;;;5073191;28;20033;-55
2023/09/09 10:22:04;;;;;;;13.50;6.70;;;25.60;53.00;;;;;;5065530;28;20036;-49
2023/09/09 10:24:32;;;;;;;11.70;7.47;;;25.60;52.70;;;;;;5073164;28;20027;-52
2023/09/09 10:27:02;;;;;;;20.00;6.63;;;25.60;52.60;;;;;;5066595;28;20035;-52
2023/09/09 10:29:29;;;;;;;13.98;7.55;;;25.60;51.90;;;;;;5070721;28;20036;-49
2023/09/09 10:32:01;;;;;;;14.00;7.38;;;25.70;52.50;;;;;;5073692;28;20039;-50
2023/09/09 10:34:29;;;;;;;10.88;6.97;;;25.60;52.50;;;;;;5073809;28;20020;-49
2023/09/09 10:36:57;;;;;;;8.70;6.47;;;25.50;52.60;;;;;;5073877;28;20104;-48
2023/09/09 10:39:23;;;;;;;14.55;7.03;;;25.70;52.00;;;;;;5073372;28;20020;-53
2023/09/09 10:41:50;;;;;;;18.05;6.68;;;25.80;50.60;;;;;;5068712;28;20021;-51
2023/09/09 10:44:16;;;;;;;10.60;6.32;;;25.80;50.50;;;;;;5072407;28;20089;-53
2023/09/09 10:46:42;;;;;;;12.57;6.53;;;25.80;51.10;;;;;;5067746;28;20519;-54
2023/09/09 10:49:08;;;;;;;14.95;6.03;;;25.80;51.00;;;;;;5066180;28;20499;-55
2023/09/09 10:51:50;;;;;;;9.85;6.10;;;25.80;50.50;;;;;;5065557;28;20029;-55
2023/09/09 10:54:17;;;;;;;8.82;6.35;;;25.90;50.30;;;;;;5059002;28;20031;-55
2023/09/09 10:56:54;;;;;;;10.88;5.80;;;26.00;49.30;;;;;;5067401;28;20021;-55
2023/09/09 10:59:25;;;;;;;13.38;6.00;;;25.90;48.10;;;;;;5056680;28;20484;-53
2023/09/09 11:02:14;;;;;;;10.60;5.90;;;25.70;48.10;;;;;;5073072;28;20024;-52
2023/09/09 11:04:41;;;;;;;14.35;6.20;;;25.70;48.90;;;;;;5066876;28;20075;-49
2023/09/09 11:07:13;;;;;;;15.18;5.75;;;25.60;49.20;;;;;;5066849;28;20569;-54
2023/09/09 11:09:49;;;;;;;16.77;6.30;;;25.60;49.30;;;;;;5070524;28;20048;-52
2023/09/09 11:12:16;;;;;;;16.15;5.90;;;25.60;49.40;;;;;;5070381;28;20028;-52
2023/09/09 11:14:46;;;;;;;10.57;5.50;;;25.60;49.40;;;;;;5068533;28;20052;-51
2023/09/09 11:17:13;;;;;;;10.20;5.63;;;25.70;49.10;;;;;;5068255;28;20035;-49
2023/09/09 11:19:42;;;;;;;17.77;5.72;;;25.70;49.60;;;;;;5072435;28;20484;-52
2023/09/09 11:22:08;;;;;;;11.98;6.00;;;25.80;49.30;;;;;;5073060;28;20055;-55
2023/09/09 11:24:35;;;;;;;12.65;6.63;;;25.90;48.80;;;;;;5073021;28;20103;-54
2023/09/09 11:27:01;;;;;;;10.52;5.85;;;25.80;48.80;;;;;;5073048;28;20032;-50
2023/09/09 11:29:29;;;;;;;15.55;6.00;;;25.80;49.20;;;;;;5063113;28;20065;-55
2023/09/09 11:31:55;;;;;;;11.40;5.78;;;25.80;48.90;;;;;;5071276;28;20036;-49
2023/09/09 11:34:32;;;;;;;17.02;6.65;;;25.80;48.70;;;;;;5071524;28;20021;-54
2023/09/09 11:37:01;;;;;;;10.32;5.18;;;25.80;49.20;;;;;;5072512;28;20098;-52
2023/09/09 11:39:27;;;;;;;;;;;25.80;48.90;;;;;;5072461;28;20035;-50
2023/09/09 11:41:53;;;;;;;8.63;5.32;;;25.80;48.00;;;;;;5072731;28;19908;-49
2023/09/09 11:44:19;;;;;;;11.70;5.53;;;25.80;47.50;;;;;;5066877;28;20021;-50
2023/09/09 11:46:46;;;;;;;9.15;5.47;;;25.80;47.20;;;;;;5068309;28;20071;-49
2023/09/09 11:49:13;;;;;;;15.93;7.00;;;25.80;47.30;;;;;;5066362;28;20024;-53
2023/09/09 11:51:39;;;;;;;11.90;7.28;;;25.80;47.20;;;;;;5072153;28;20025;-54
2023/09/09 11:54:08;;;;;;;13.50;7.57;;;25.70;47.60;;;;;;5067196;28;20158;-55
2023/09/09 11:56:34;;;;;;;10.05;6.32;;;25.70;48.10;;;;;;5072250;28;20048;-54
2023/09/09 11:59:06;;;;;;;11.13;6.00;;;25.70;48.30;;;;;;5070576;28;20129;-56
2023/09/09 12:01:45;;;;;;;12.23;7.15;;;25.70;47.60;;;;;;5070983;28;20027;-55
2023/09/09 12:04:12;;;;;;;12.80;6.50;;;25.80;47.60;;;;;;5071980;28;20028;-49
2023/09/09 12:06:48;;;;;;;13.20;6.85;;;25.80;47.80;;;;;;5067130;28;20032;-52
2023/09/09 12:09:14;;;;;;;14.70;7.10;;;25.70;48.20;;;;;;5071479;28;20029;-52
2023/09/09 12:11:41;;;;;;;10.30;6.50;;;25.60;48.30;;;;;;5071659;28;20028;-55
2023/09/09 12:14:09;;;;;;;9.73;6.35;;;25.60;48.00;;;;;;5071754;28;20031;-54
2023/09/09 12:16:36;;;;;;;10.98;6.70;;;25.60;47.90;;;;;;5071713;28;20016;-50
2023/09/09 12:19:02;;;;;;;10.60;6.68;;;25.60;48.10;;;;;;5065971;28;20451;-49
2023/09/09 12:21:29;;;;;;;10.95;6.03;;;25.60;48.10;;;;;;5071444;28;20031;-49
2023/09/09 12:23:59;;;;;;;15.05;6.53;;;25.60;47.30;;;;;;5071650;28;20056;-46
2023/09/09 12:26:26;;;;;;;9.50;5.63;;;25.70;47.30;;;;;;5071509;28;20028;-50
2023/09/09 12:29:11;;;;;;;13.25;5.18;;;25.70;47.20;;;;;;5071352;28;20713;-52
2023/09/09 12:31:55;;;;;;;9.00;5.45;;;25.70;46.70;;;;;;5071525;28;20541;-51
2023/09/09 12:34:24;;;;;;;8.65;5.38;;;25.80;47.10;;;;;;5071112;28;20071;-52